aviador You're here:

KFDW Decoded Metar

FAIRFIELD COUNTY AIRPORT in SC, USA
Report Time2017-05-26 10:55:00
UTC Time2017-05-26 11:16:43
Flight Rules vfr VFR
Wind260° at 03 kt
W.Decomp.*RWY 22: 2.0 kt HW 2.2 kt RCW
W.Rank260° ranks 22
Current wind is below 260° avg. (5.3)
Visibility9999 m
Phenomena:N/A
Clouds:N/A
Expected CloudBase > 400 ft AGL from Temp-Dew spread
CeilingNone
Temp13°C (ISA -1)
Dew Point12°C (94% RH)
AAT12.6°C
QNH1015 hPa
Density Alt597 ft
Elevation577 ft
Report Wrong Elevation
Raw Report
METAR KFDW 261055Z AUTO 26003KT 10SM CLR 13/12 A2996 RMK AO1=

Extra information for KFDW:More info

Metar Taf Metar & Taf Last 4 Metars F.Rules Stats Wind Profile Meteogram Temp Stats Airport Information Weather charts Add Link Nearby VenuesMetar ALERT Operation Metar Decoded Social comments

AIRNAV info for KFDW